الصفحة الرئيسية
METAR-TAF:

METAR-TAF

مطار :

Valdivia, تشيلي

دائرة عرض: 39-37S, خط طول: 073-05W, ارتفاع: 19 متر

مراقبة الطقس الحالي

تاريخ ووقت الإصدار 1ساعة و 9 دقيقة قبل الساعة 21:00UTC
ريح 3 عقدة من الشرق
درجة الحرارة 11°درجة مئوية
الرطوبة 71%
ضغط 1023 hPa
الرؤية 10 كم أو أكثر
الغيوم لا تقل 1500 م ولا وجود لمزنة ركامية السحاب الأسود

METAR: SCVD 212100Z 08003KT CAVOK 11/06 Q1023

زمن: 18:09 (22:09 UTC)

توقعات

تاريخ ووقت الإصدار 8ساعات و 59 دقيقة قبل الساعة 13:10UTC
التوقعات صالحة من21 الساعة 13 UTC إلى 21 الساعة 24 UTC
ريح 2 عقدةمن اتجاهات متغيرة
الرؤية: 0250 متر
ضباب مجمِّد
أصبح
من 21 الساعة 15 UTC إلى 21 الساعة 17 UTC
الرؤية: 2000 متر
غيوم متفرقة على ارتفاع 500 قدم
غشاء
أصبح
من 21 الساعة 17 UTC إلى 21 الساعة 19 UTC
الرؤية 10 كم أو أكثر
الغيوم لا تقل 1500 م ولا وجود لمزنة ركامية السحاب الأسود

TAF: SCVD 211310Z 2113/2124 VRB02KT 0250 FZFG TNM02/2113Z TX13/2119Z BECMG 2115/2117 2000 BR SCT005 BECMG 2117/2119 CAVOK

أرصاد الطقس والتوقعات من أكثر من 4000 مطار (تقارير الطقس للمطار METAR والتنبؤ بالطقس بالمطارTAF).

المحطات المتاحة هي النقط الصفراء والحمراء على الخريطة.

حرك المؤشر فوق النقطة لمعرفة اسم المحطة.

ثم انقر لمعرفة أرصاد وتوقعات الطقس.

لتغيير الخارطة: اضغط على الأزرار الخضراء مع رمز الصليب الأسود للتكبير. على الزر الأخضر مع شرطة للتصغير، أو على الأسهم الخضراء للخرائط المجاورة.


METAR-TAF: